Anderson, Alabama
Current Conditions -  °F | °C
As of 7:53 PM on Monday 22 Dec 2014 (Local Time) from KMSL Reporting Station
Light Rain Light Rain  
Wind Chill: 54°   Ceiling: 700
Heat Index: 54°   Visibility: 9mi
Dew Point: 51°   Wind: 13mph
Humidity: 90%   Direction: 140°SE
Pressure: 29.74"   Gusts: NA
Location:  34.93°N, 87.27°W
Report Text: KMSL 230153Z AUTO 14011KT 9SM -RA OVC007 12/11 A2974 RMK AO2 RAB45 CIG 004V011 SLP070 P0001 T01220106
Loading
Personal Weather Stations






























Interactive Weather Map New forecast layout! Learn more

10-Day Weather Forecast

Advertisements
Track Severe Weather on mobile